sensor_id;sensor_type;location;lat;lon;timestamp;P1;durP1;ratioP1;P2;durP2;ratioP2
20456;SDS011;10387;51.102;6.848;2022-10-15T00:02:12;10.23;;;8.90;;
20456;SDS011;10387;51.102;6.848;2022-10-15T00:04:38;10.57;;;9.43;;
20456;SDS011;10387;51.102;6.848;2022-10-15T00:07:04;10.17;;;9.17;;
20456;SDS011;10387;51.102;6.848;2022-10-15T00:09:30;10.50;;;8.90;;
20456;SDS011;10387;51.102;6.848;2022-10-15T00:11:56;9.47;;;8.53;;
20456;SDS011;10387;51.102;6.848;2022-10-15T00:14:22;9.60;;;8.70;;
20456;SDS011;10387;51.102;6.848;2022-10-15T00:16:48;8.10;;;7.30;;
20456;SDS011;10387;51.102;6.848;2022-10-15T00:19:14;8.73;;;7.83;;
20456;SDS011;10387;51.102;6.848;2022-10-15T00:21:41;8.50;;;7.70;;
20456;SDS011;10387;51.102;6.848;2022-10-15T00:24:07;8.23;;;7.43;;
20456;SDS011;10387;51.102;6.848;2022-10-15T00:26:33;8.00;;;7.20;;
20456;SDS011;10387;51.102;6.848;2022-10-15T00:29:01;8.73;;;7.60;;
20456;SDS011;10387;51.102;6.848;2022-10-15T00:31:28;8.10;;;7.27;;
20456;SDS011;10387;51.102;6.848;2022-10-15T00:33:55;7.50;;;6.80;;
20456;SDS011;10387;51.102;6.848;2022-10-15T00:36:25;8.30;;;7.60;;
20456;SDS011;10387;51.102;6.848;2022-10-15T00:38:51;8.83;;;7.90;;
20456;SDS011;10387;51.102;6.848;2022-10-15T00:41:22;7.43;;;6.73;;
20456;SDS011;10387;51.102;6.848;2022-10-15T00:43:53;8.63;;;7.70;;
20456;SDS011;10387;51.102;6.848;2022-10-15T00:46:31;8.27;;;7.47;;
20456;SDS011;10387;51.102;6.848;2022-10-15T00:49:02;14.13;;;11.40;;
20456;SDS011;10387;51.102;6.848;2022-10-15T00:51:32;10.33;;;8.77;;
20456;SDS011;10387;51.102;6.848;2022-10-15T00:53:58;9.03;;;8.13;;
20456;SDS011;10387;51.102;6.848;2022-10-15T00:56:25;11.30;;;9.57;;
20456;SDS011;10387;51.102;6.848;2022-10-15T00:58:52;9.20;;;8.37;;
20456;SDS011;10387;51.102;6.848;2022-10-15T01:01:18;8.73;;;7.93;;
20456;SDS011;10387;51.102;6.848;2022-10-15T01:03:45;8.33;;;7.53;;
20456;SDS011;10387;51.102;6.848;2022-10-15T01:06:11;8.03;;;7.23;;
20456;SDS011;10387;51.102;6.848;2022-10-15T01:08:40;11.23;;;7.90;;
20456;SDS011;10387;51.102;6.848;2022-10-15T01:13:57;8.50;;;7.70;;
20456;SDS011;10387;51.102;6.848;2022-10-15T01:16:48;8.43;;;7.60;;
20456;SDS011;10387;51.102;6.848;2022-10-15T01:21:47;8.07;;;7.27;;
20456;SDS011;10387;51.102;6.848;2022-10-15T01:32:22;9.40;;;8.30;;
20456;SDS011;10387;51.102;6.848;2022-10-15T01:34:53;9.27;;;8.23;;
20456;SDS011;10387;51.102;6.848;2022-10-15T01:39:57;9.70;;;8.43;;
20456;SDS011;10387;51.102;6.848;2022-10-15T01:42:29;9.33;;;8.43;;
20456;SDS011;10387;51.102;6.848;2022-10-15T01:44:58;8.57;;;7.73;;
20456;SDS011;10387;51.102;6.848;2022-10-15T01:47:40;9.93;;;7.93;;
20456;SDS011;10387;51.102;6.848;2022-10-15T01:50:09;8.53;;;7.57;;
20456;SDS011;10387;51.102;6.848;2022-10-15T01:52:36;9.60;;;8.17;;
20456;SDS011;10387;51.102;6.848;2022-10-15T01:55:04;8.97;;;8.03;;
20456;SDS011;10387;51.102;6.848;2022-10-15T01:57:34;9.27;;;7.73;;
20456;SDS011;10387;51.102;6.848;2022-10-15T02:00:02;9.27;;;7.97;;
20456;SDS011;10387;51.102;6.848;2022-10-15T02:02:37;9.07;;;8.17;;
20456;SDS011;10387;51.102;6.848;2022-10-15T02:05:07;9.27;;;8.37;;
20456;SDS011;10387;51.102;6.848;2022-10-15T02:07:56;9.93;;;8.13;;
20456;SDS011;10387;51.102;6.848;2022-10-15T02:10:27;9.00;;;7.90;;
20456;SDS011;10387;51.102;6.848;2022-10-15T02:13:03;9.93;;;7.70;;
20456;SDS011;10387;51.102;6.848;2022-10-15T02:15:35;9.30;;;7.83;;
20456;SDS011;10387;51.102;6.848;2022-10-15T02:18:05;8.73;;;7.87;;
20456;SDS011;10387;51.102;6.848;2022-10-15T02:20:38;8.97;;;7.10;;
20456;SDS011;10387;51.102;6.848;2022-10-15T02:23:07;9.70;;;7.70;;
20456;SDS011;10387;51.102;6.848;2022-10-15T02:25:34;8.63;;;7.73;;
20456;SDS011;10387;51.102;6.848;2022-10-15T02:28:04;9.70;;;8.20;;
20456;SDS011;10387;51.102;6.848;2022-10-15T02:30:31;8.70;;;7.80;;
20456;SDS011;10387;51.102;6.848;2022-10-15T02:32:57;10.30;;;8.20;;
20456;SDS011;10387;51.102;6.848;2022-10-15T02:35:24;8.93;;;8.03;;
20456;SDS011;10387;51.102;6.848;2022-10-15T02:37:51;8.43;;;7.53;;
20456;SDS011;10387;51.102;6.848;2022-10-15T02:40:23;9.53;;;8.00;;
20456;SDS011;10387;51.102;6.848;2022-10-15T02:42:51;9.43;;;8.20;;
20456;SDS011;10387;51.102;6.848;2022-10-15T02:45:18;10.80;;;8.60;;
20456;SDS011;10387;51.102;6.848;2022-10-15T02:47:44;9.77;;;7.83;;
20456;SDS011;10387;51.102;6.848;2022-10-15T02:50:10;10.67;;;8.13;;
20456;SDS011;10387;51.102;6.848;2022-10-15T02:52:38;10.63;;;7.77;;
20456;SDS011;10387;51.102;6.848;2022-10-15T02:55:04;10.57;;;8.27;;
20456;SDS011;10387;51.102;6.848;2022-10-15T02:57:32;10.27;;;8.50;;
20456;SDS011;10387;51.102;6.848;2022-10-15T02:59:59;9.50;;;7.80;;
20456;SDS011;10387;51.102;6.848;2022-10-15T03:02:26;10.43;;;8.20;;
20456;SDS011;10387;51.102;6.848;2022-10-15T03:04:52;9.53;;;8.20;;
20456;SDS011;10387;51.102;6.848;2022-10-15T03:07:20;10.50;;;8.27;;
20456;SDS011;10387;51.102;6.848;2022-10-15T03:09:47;8.97;;;7.90;;
20456;SDS011;10387;51.102;6.848;2022-10-15T03:12:14;10.87;;;8.77;;
20456;SDS011;10387;51.102;6.848;2022-10-15T03:14:40;8.70;;;7.60;;
20456;SDS011;10387;51.102;6.848;2022-10-15T03:17:06;10.83;;;8.83;;
20456;SDS011;10387;51.102;6.848;2022-10-15T03:19:33;10.40;;;8.40;;
20456;SDS011;10387;51.102;6.848;2022-10-15T03:21:59;9.43;;;8.30;;
20456;SDS011;10387;51.102;6.848;2022-10-15T03:24:34;9.30;;;8.40;;
20456;SDS011;10387;51.102;6.848;2022-10-15T03:27:01;10.10;;;8.37;;
20456;SDS011;10387;51.102;6.848;2022-10-15T03:29:28;10.70;;;9.07;;
20456;SDS011;10387;51.102;6.848;2022-10-15T03:31:59;11.13;;;7.97;;
20456;SDS011;10387;51.102;6.848;2022-10-15T03:34:25;10.80;;;8.80;;
20456;SDS011;10387;51.102;6.848;2022-10-15T03:36:52;9.67;;;7.97;;
20456;SDS011;10387;51.102;6.848;2022-10-15T03:39:18;10.83;;;8.60;;
20456;SDS011;10387;51.102;6.848;2022-10-15T03:41:44;11.23;;;8.53;;
20456;SDS011;10387;51.102;6.848;2022-10-15T03:44:18;11.80;;;8.90;;
20456;SDS011;10387;51.102;6.848;2022-10-15T03:46:55;11.07;;;9.33;;
20456;SDS011;10387;51.102;6.848;2022-10-15T03:49:26;12.57;;;9.47;;
20456;SDS011;10387;51.102;6.848;2022-10-15T03:51:52;12.53;;;9.87;;
20456;SDS011;10387;51.102;6.848;2022-10-15T03:54:18;12.73;;;10.90;;
20456;SDS011;10387;51.102;6.848;2022-10-15T03:56:49;11.17;;;9.87;;
20456;SDS011;10387;51.102;6.848;2022-10-15T03:59:30;14.23;;;11.70;;
20456;SDS011;10387;51.102;6.848;2022-10-15T04:01:59;11.80;;;10.53;;
20456;SDS011;10387;51.102;6.848;2022-10-15T04:04:26;13.17;;;11.77;;
20456;SDS011;10387;51.102;6.848;2022-10-15T04:06:52;15.17;;;11.63;;
20456;SDS011;10387;51.102;6.848;2022-10-15T04:09:22;13.53;;;11.33;;
20456;SDS011;10387;51.102;6.848;2022-10-15T04:11:49;12.10;;;10.63;;
20456;SDS011;10387;51.102;6.848;2022-10-15T04:14:16;11.73;;;10.40;;
20456;SDS011;10387;51.102;6.848;2022-10-15T04:16:44;14.93;;;11.50;;
20456;SDS011;10387;51.102;6.848;2022-10-15T04:19:15;13.73;;;12.17;;
20456;SDS011;10387;51.102;6.848;2022-10-15T04:21:49;14.23;;;11.53;;
20456;SDS011;10387;51.102;6.848;2022-10-15T04:24:27;13.50;;;10.77;;
20456;SDS011;10387;51.102;6.848;2022-10-15T04:26:54;14.50;;;11.67;;
20456;SDS011;10387;51.102;6.848;2022-10-15T04:29:20;15.23;;;11.53;;
20456;SDS011;10387;51.102;6.848;2022-10-15T04:31:47;16.90;;;12.93;;
20456;SDS011;10387;51.102;6.848;2022-10-15T04:34:13;15.83;;;13.30;;
20456;SDS011;10387;51.102;6.848;2022-10-15T04:36:39;14.90;;;12.60;;
20456;SDS011;10387;51.102;6.848;2022-10-15T04:39:11;15.87;;;12.73;;
20456;SDS011;10387;51.102;6.848;2022-10-15T04:41:42;16.47;;;13.07;;
20456;SDS011;10387;51.102;6.848;2022-10-15T04:44:11;17.60;;;14.10;;
20456;SDS011;10387;51.102;6.848;2022-10-15T04:46:38;15.30;;;13.50;;
20456;SDS011;10387;51.102;6.848;2022-10-15T04:49:27;16.13;;;13.43;;
20456;SDS011;10387;51.102;6.848;2022-10-15T04:51:54;18.77;;;13.60;;
20456;SDS011;10387;51.102;6.848;2022-10-15T04:54:28;16.57;;;13.70;;
20456;SDS011;10387;51.102;6.848;2022-10-15T04:56:57;16.40;;;13.23;;
20456;SDS011;10387;51.102;6.848;2022-10-15T04:59:23;18.63;;;14.70;;
20456;SDS011;10387;51.102;6.848;2022-10-15T05:02:12;15.43;;;13.20;;
20456;SDS011;10387;51.102;6.848;2022-10-15T05:04:39;17.17;;;14.53;;
20456;SDS011;10387;51.102;6.848;2022-10-15T05:07:05;18.87;;;14.87;;
20456;SDS011;10387;51.102;6.848;2022-10-15T05:09:31;19.53;;;15.43;;
20456;SDS011;10387;51.102;6.848;2022-10-15T05:11:58;18.43;;;15.10;;
20456;SDS011;10387;51.102;6.848;2022-10-15T05:14:26;18.30;;;14.17;;
20456;SDS011;10387;51.102;6.848;2022-10-15T05:17:04;20.30;;;15.57;;
20456;SDS011;10387;51.102;6.848;2022-10-15T05:19:36;18.83;;;15.50;;
20456;SDS011;10387;51.102;6.848;2022-10-15T05:22:02;21.20;;;16.30;;
20456;SDS011;10387;51.102;6.848;2022-10-15T05:24:30;19.03;;;14.50;;
20456;SDS011;10387;51.102;6.848;2022-10-15T05:27:10;17.37;;;15.50;;
20456;SDS011;10387;51.102;6.848;2022-10-15T05:29:37;18.43;;;14.93;;
20456;SDS011;10387;51.102;6.848;2022-10-15T05:32:04;17.33;;;12.97;;
20456;SDS011;10387;51.102;6.848;2022-10-15T05:34:30;18.50;;;13.33;;
20456;SDS011;10387;51.102;6.848;2022-10-15T05:37:09;14.80;;;12.30;;
20456;SDS011;10387;51.102;6.848;2022-10-15T05:39:38;15.33;;;11.87;;
20456;SDS011;10387;51.102;6.848;2022-10-15T05:42:04;13.87;;;10.80;;
20456;SDS011;10387;51.102;6.848;2022-10-15T05:44:37;13.63;;;11.87;;
20456;SDS011;10387;51.102;6.848;2022-10-15T05:47:03;17.80;;;13.33;;
20456;SDS011;10387;51.102;6.848;2022-10-15T05:49:32;16.47;;;12.70;;
20456;SDS011;10387;51.102;6.848;2022-10-15T05:52:07;15.50;;;12.63;;
20456;SDS011;10387;51.102;6.848;2022-10-15T05:55:04;15.30;;;12.77;;
20456;SDS011;10387;51.102;6.848;2022-10-15T05:57:30;15.20;;;12.13;;
20456;SDS011;10387;51.102;6.848;2022-10-15T05:59:59;14.27;;;12.07;;
20456;SDS011;10387;51.102;6.848;2022-10-15T06:02:25;13.93;;;11.23;;
20456;SDS011;10387;51.102;6.848;2022-10-15T06:04:52;16.23;;;12.03;;
20456;SDS011;10387;51.102;6.848;2022-10-15T06:07:18;14.47;;;11.53;;
20456;SDS011;10387;51.102;6.848;2022-10-15T06:09:45;15.33;;;12.13;;
20456;SDS011;10387;51.102;6.848;2022-10-15T06:12:12;16.33;;;11.47;;
20456;SDS011;10387;51.102;6.848;2022-10-15T06:14:38;14.23;;;10.47;;
20456;SDS011;10387;51.102;6.848;2022-10-15T06:17:05;15.97;;;12.30;;
20456;SDS011;10387;51.102;6.848;2022-10-15T06:19:31;15.57;;;11.90;;
20456;SDS011;10387;51.102;6.848;2022-10-15T06:21:57;14.07;;;11.50;;
20456;SDS011;10387;51.102;6.848;2022-10-15T06:24:23;18.03;;;12.83;;
20456;SDS011;10387;51.102;6.848;2022-10-15T06:26:49;15.10;;;12.10;;
20456;SDS011;10387;51.102;6.848;2022-10-15T06:29:15;18.60;;;12.27;;
20456;SDS011;10387;51.102;6.848;2022-10-15T06:31:41;13.40;;;11.70;;
20456;SDS011;10387;51.102;6.848;2022-10-15T06:34:08;21.00;;;15.83;;
20456;SDS011;10387;51.102;6.848;2022-10-15T06:36:34;24.17;;;16.97;;
20456;SDS011;10387;51.102;6.848;2022-10-15T06:39:01;25.50;;;17.30;;
20456;SDS011;10387;51.102;6.848;2022-10-15T06:41:27;22.47;;;17.10;;
20456;SDS011;10387;51.102;6.848;2022-10-15T06:43:53;23.23;;;16.77;;
20456;SDS011;10387;51.102;6.848;2022-10-15T06:46:19;24.17;;;16.77;;
20456;SDS011;10387;51.102;6.848;2022-10-15T06:48:45;24.47;;;18.13;;
20456;SDS011;10387;51.102;6.848;2022-10-15T06:51:11;19.53;;;15.67;;
20456;SDS011;10387;51.102;6.848;2022-10-15T06:53:45;23.47;;;16.30;;
20456;SDS011;10387;51.102;6.848;2022-10-15T06:56:11;20.53;;;15.40;;
20456;SDS011;10387;51.102;6.848;2022-10-15T06:58:40;21.23;;;16.67;;
20456;SDS011;10387;51.102;6.848;2022-10-15T07:01:07;19.47;;;15.37;;
20456;SDS011;10387;51.102;6.848;2022-10-15T07:03:34;19.97;;;14.37;;
20456;SDS011;10387;51.102;6.848;2022-10-15T07:06:05;19.53;;;14.40;;
20456;SDS011;10387;51.102;6.848;2022-10-15T07:08:31;16.93;;;13.40;;
20456;SDS011;10387;51.102;6.848;2022-10-15T07:10:59;18.07;;;14.70;;
20456;SDS011;10387;51.102;6.848;2022-10-15T07:13:28;16.27;;;13.10;;
20456;SDS011;10387;51.102;6.848;2022-10-15T07:15:56;17.17;;;13.53;;
20456;SDS011;10387;51.102;6.848;2022-10-15T07:18:22;18.17;;;13.63;;
20456;SDS011;10387;51.102;6.848;2022-10-15T07:20:48;19.13;;;14.60;;
20456;SDS011;10387;51.102;6.848;2022-10-15T07:23:14;17.17;;;14.13;;
20456;SDS011;10387;51.102;6.848;2022-10-15T07:25:40;17.87;;;14.13;;
20456;SDS011;10387;51.102;6.848;2022-10-15T07:28:06;17.23;;;13.70;;
20456;SDS011;10387;51.102;6.848;2022-10-15T07:30:32;13.97;;;12.17;;
20456;SDS011;10387;51.102;6.848;2022-10-15T07:32:58;16.83;;;12.60;;
20456;SDS011;10387;51.102;6.848;2022-10-15T07:35:25;14.00;;;11.83;;
20456;SDS011;10387;51.102;6.848;2022-10-15T07:37:51;14.23;;;12.00;;
20456;SDS011;10387;51.102;6.848;2022-10-15T07:40:18;13.17;;;11.50;;
20456;SDS011;10387;51.102;6.848;2022-10-15T07:42:50;11.30;;;10.00;;
20456;SDS011;10387;51.102;6.848;2022-10-15T07:45:18;10.30;;;9.10;;
20456;SDS011;10387;51.102;6.848;2022-10-15T07:47:44;10.17;;;9.17;;
20456;SDS011;10387;51.102;6.848;2022-10-15T07:50:13;9.73;;;8.03;;
20456;SDS011;10387;51.102;6.848;2022-10-15T07:52:39;8.90;;;8.00;;
20456;SDS011;10387;51.102;6.848;2022-10-15T07:55:06;8.47;;;7.57;;
20456;SDS011;10387;51.102;6.848;2022-10-15T07:57:32;7.60;;;6.70;;
20456;SDS011;10387;51.102;6.848;2022-10-15T07:59:58;7.43;;;6.70;;
20456;SDS011;10387;51.102;6.848;2022-10-15T08:02:24;7.43;;;5.83;;
20456;SDS011;10387;51.102;6.848;2022-10-15T08:04:50;8.37;;;5.90;;
20456;SDS011;10387;51.102;6.848;2022-10-15T08:07:16;5.97;;;5.27;;
20456;SDS011;10387;51.102;6.848;2022-10-15T08:09:42;6.57;;;5.77;;
20456;SDS011;10387;51.102;6.848;2022-10-15T08:12:08;6.03;;;5.43;;
20456;SDS011;10387;51.102;6.848;2022-10-15T08:14:34;5.97;;;5.27;;
20456;SDS011;10387;51.102;6.848;2022-10-15T08:17:02;6.40;;;4.93;;
20456;SDS011;10387;51.102;6.848;2022-10-15T08:19:28;5.50;;;4.73;;
20456;SDS011;10387;51.102;6.848;2022-10-15T08:21:54;4.83;;;4.33;;
20456;SDS011;10387;51.102;6.848;2022-10-15T08:24:21;7.30;;;4.60;;
20456;SDS011;10387;51.102;6.848;2022-10-15T08:26:47;4.80;;;4.40;;
20456;SDS011;10387;51.102;6.848;2022-10-15T08:29:13;5.20;;;4.17;;
20456;SDS011;10387;51.102;6.848;2022-10-15T08:31:40;4.47;;;4.07;;
20456;SDS011;10387;51.102;6.848;2022-10-15T08:34:06;4.37;;;3.97;;
20456;SDS011;10387;51.102;6.848;2022-10-15T08:36:33;4.27;;;3.87;;
20456;SDS011;10387;51.102;6.848;2022-10-15T08:38:59;4.80;;;4.00;;
20456;SDS011;10387;51.102;6.848;2022-10-15T08:41:33;4.30;;;3.43;;
20456;SDS011;10387;51.102;6.848;2022-10-15T08:44:00;3.07;;;2.77;;
20456;SDS011;10387;51.102;6.848;2022-10-15T08:48:55;3.47;;;3.17;;
20456;SDS011;10387;51.102;6.848;2022-10-15T08:51:24;4.97;;;3.40;;
20456;SDS011;10387;51.102;6.848;2022-10-15T08:54:01;4.40;;;3.93;;
20456;SDS011;10387;51.102;6.848;2022-10-15T08:56:36;4.13;;;3.43;;
20456;SDS011;10387;51.102;6.848;2022-10-15T09:04:00;3.23;;;2.77;;
20456;SDS011;10387;51.102;6.848;2022-10-15T09:06:34;3.40;;;3.00;;
20456;SDS011;10387;51.102;6.848;2022-10-15T09:11:41;3.17;;;2.87;;
20456;SDS011;10387;51.102;6.848;2022-10-15T09:14:10;3.30;;;2.80;;
20456;SDS011;10387;51.102;6.848;2022-10-15T09:16:38;3.63;;;2.63;;
20456;SDS011;10387;51.102;6.848;2022-10-15T09:19:11;3.33;;;2.50;;
20456;SDS011;10387;51.102;6.848;2022-10-15T09:21:39;3.10;;;2.53;;
20456;SDS011;10387;51.102;6.848;2022-10-15T09:24:08;2.77;;;2.57;;
20456;SDS011;10387;51.102;6.848;2022-10-15T09:26:52;3.13;;;2.43;;
20456;SDS011;10387;51.102;6.848;2022-10-15T09:31:56;2.83;;;2.00;;
20456;SDS011;10387;51.102;6.848;2022-10-15T09:34:31;4.47;;;2.00;;
20456;SDS011;10387;51.102;6.848;2022-10-15T09:37:02;2.43;;;1.83;;
20456;SDS011;10387;51.102;6.848;2022-10-15T09:42:03;1.50;;;1.33;;
20456;SDS011;10387;51.102;6.848;2022-10-15T09:44:37;2.37;;;1.67;;
20456;SDS011;10387;51.102;6.848;2022-10-15T09:47:38;3.33;;;2.80;;
20456;SDS011;10387;51.102;6.848;2022-10-15T09:50:00;2.50;;;1.73;;
20456;SDS011;10387;51.102;6.848;2022-10-15T09:55:08;1.63;;;1.53;;
20456;SDS011;10387;51.102;6.848;2022-10-15T09:57:35;2.50;;;1.40;;
20456;SDS011;10387;51.102;6.848;2022-10-15T10:00:04;3.07;;;1.37;;
20456;SDS011;10387;51.102;6.848;2022-10-15T10:02:41;1.53;;;1.33;;
20456;SDS011;10387;51.102;6.848;2022-10-15T10:08:09;1.40;;;1.30;;
20456;SDS011;10387;51.102;6.848;2022-10-15T10:10:36;1.43;;;1.10;;
20456;SDS011;10387;51.102;6.848;2022-10-15T10:13:04;1.30;;;1.20;;
20456;SDS011;10387;51.102;6.848;2022-10-15T10:15:36;1.13;;;1.10;;
20456;SDS011;10387;51.102;6.848;2022-10-15T10:18:04;1.40;;;1.20;;
20456;SDS011;10387;51.102;6.848;2022-10-15T10:20:31;1.30;;;1.20;;
20456;SDS011;10387;51.102;6.848;2022-10-15T10:23:01;1.77;;;1.10;;
20456;SDS011;10387;51.102;6.848;2022-10-15T10:25:33;1.67;;;1.10;;
20456;SDS011;10387;51.102;6.848;2022-10-15T10:28:04;0.83;;;0.83;;
20456;SDS011;10387;51.102;6.848;2022-10-15T10:30:32;0.80;;;0.80;;
20456;SDS011;10387;51.102;6.848;2022-10-15T10:32:58;1.17;;;0.93;;
20456;SDS011;10387;51.102;6.848;2022-10-15T10:35:26;1.77;;;1.20;;
20456;SDS011;10387;51.102;6.848;2022-10-15T10:37:56;0.87;;;0.87;;
20456;SDS011;10387;51.102;6.848;2022-10-15T10:40:29;0.90;;;0.83;;
20456;SDS011;10387;51.102;6.848;2022-10-15T10:43:09;1.53;;;1.00;;
20456;SDS011;10387;51.102;6.848;2022-10-15T10:45:35;2.50;;;1.10;;
20456;SDS011;10387;51.102;6.848;2022-10-15T10:48:18;1.10;;;1.00;;
20456;SDS011;10387;51.102;6.848;2022-10-15T10:50:44;4.03;;;1.03;;
20456;SDS011;10387;51.102;6.848;2022-10-15T10:53:21;2.50;;;1.00;;
20456;SDS011;10387;51.102;6.848;2022-10-15T10:55:47;1.27;;;1.17;;
20456;SDS011;10387;51.102;6.848;2022-10-15T10:58:19;1.30;;;1.10;;
20456;SDS011;10387;51.102;6.848;2022-10-15T11:00:46;1.37;;;1.00;;
20456;SDS011;10387;51.102;6.848;2022-10-15T11:17:06;3.43;;;1.00;;
20456;SDS011;10387;51.102;6.848;2022-10-15T11:25:21;1.10;;;1.00;;
20456;SDS011;10387;51.102;6.848;2022-10-15T11:33:32;0.90;;;0.90;;
20456;SDS011;10387;51.102;6.848;2022-10-15T11:36:22;1.17;;;1.07;;
20456;SDS011;10387;51.102;6.848;2022-10-15T11:39:02;1.30;;;1.20;;
20456;SDS011;10387;51.102;6.848;2022-10-15T11:41:36;1.10;;;1.00;;
20456;SDS011;10387;51.102;6.848;2022-10-15T11:46:38;1.20;;;1.00;;
20456;SDS011;10387;51.102;6.848;2022-10-15T11:49:15;2.17;;;0.80;;
20456;SDS011;10387;51.102;6.848;2022-10-15T11:54:25;1.07;;;0.80;;
20456;SDS011;10387;51.102;6.848;2022-10-15T11:56:56;1.63;;;0.80;;
20456;SDS011;10387;51.102;6.848;2022-10-15T12:01:51;2.40;;;1.00;;
20456;SDS011;10387;51.102;6.848;2022-10-15T12:04:52;3.13;;;1.30;;
20456;SDS011;10387;51.102;6.848;2022-10-15T12:07:15;1.80;;;0.90;;
20456;SDS011;10387;51.102;6.848;2022-10-15T12:09:45;0.80;;;0.80;;
20456;SDS011;10387;51.102;6.848;2022-10-15T12:12:20;1.43;;;1.10;;
20456;SDS011;10387;51.102;6.848;2022-10-15T12:14:52;3.87;;;2.43;;
20456;SDS011;10387;51.102;6.848;2022-10-15T12:17:25;0.83;;;0.83;;
20456;SDS011;10387;51.102;6.848;2022-10-15T12:19:57;1.47;;;1.00;;
20456;SDS011;10387;51.102;6.848;2022-10-15T12:22:33;1.90;;;1.27;;
20456;SDS011;10387;51.102;6.848;2022-10-15T12:24:59;0.50;;;0.50;;
20456;SDS011;10387;51.102;6.848;2022-10-15T12:27:26;0.50;;;0.50;;
20456;SDS011;10387;51.102;6.848;2022-10-15T12:32:36;2.53;;;0.50;;
20456;SDS011;10387;51.102;6.848;2022-10-15T12:35:16;0.50;;;0.50;;
20456;SDS011;10387;51.102;6.848;2022-10-15T12:37:44;1.30;;;0.60;;
20456;SDS011;10387;51.102;6.848;2022-10-15T12:42:50;1.57;;;0.90;;
20456;SDS011;10387;51.102;6.848;2022-10-15T12:45:22;2.17;;;0.70;;
20456;SDS011;10387;51.102;6.848;2022-10-15T12:47:51;0.97;;;0.80;;
20456;SDS011;10387;51.102;6.848;2022-10-15T12:50:25;1.83;;;0.87;;
20456;SDS011;10387;51.102;6.848;2022-10-15T12:52:53;1.57;;;0.90;;
20456;SDS011;10387;51.102;6.848;2022-10-15T13:00:37;1.30;;;0.73;;
20456;SDS011;10387;51.102;6.848;2022-10-15T13:03:08;0.90;;;0.90;;
20456;SDS011;10387;51.102;6.848;2022-10-15T13:05:35;0.97;;;0.73;;
20456;SDS011;10387;51.102;6.848;2022-10-15T13:08:02;1.23;;;0.80;;
20456;SDS011;10387;51.102;6.848;2022-10-15T13:10:31;0.80;;;0.70;;
20456;SDS011;10387;51.102;6.848;2022-10-15T13:13:03;1.23;;;0.83;;
20456;SDS011;10387;51.102;6.848;2022-10-15T13:15:29;1.23;;;0.83;;
20456;SDS011;10387;51.102;6.848;2022-10-15T13:18:03;1.67;;;0.80;;
20456;SDS011;10387;51.102;6.848;2022-10-15T13:20:38;0.63;;;0.63;;
20456;SDS011;10387;51.102;6.848;2022-10-15T13:23:14;1.23;;;0.90;;
20456;SDS011;10387;51.102;6.848;2022-10-15T13:25:41;1.10;;;0.70;;
20456;SDS011;10387;51.102;6.848;2022-10-15T13:30:52;0.80;;;0.80;;
20456;SDS011;10387;51.102;6.848;2022-10-15T13:33:19;1.00;;;0.80;;
20456;SDS011;10387;51.102;6.848;2022-10-15T13:35:45;2.00;;;1.00;;
20456;SDS011;10387;51.102;6.848;2022-10-15T13:38:21;1.23;;;1.00;;
20456;SDS011;10387;51.102;6.848;2022-10-15T13:40:48;1.50;;;0.93;;
20456;SDS011;10387;51.102;6.848;2022-10-15T13:43:16;1.27;;;1.20;;
20456;SDS011;10387;51.102;6.848;2022-10-15T13:45:49;1.70;;;1.17;;
20456;SDS011;10387;51.102;6.848;2022-10-15T13:48:19;1.43;;;1.33;;
20456;SDS011;10387;51.102;6.848;2022-10-15T13:50:55;2.50;;;1.20;;
20456;SDS011;10387;51.102;6.848;2022-10-15T13:53:39;1.13;;;1.10;;
20456;SDS011;10387;51.102;6.848;2022-10-15T13:56:28;1.57;;;1.10;;
20456;SDS011;10387;51.102;6.848;2022-10-15T13:58:52;1.63;;;1.03;;
20456;SDS011;10387;51.102;6.848;2022-10-15T14:01:20;1.60;;;1.10;;
20456;SDS011;10387;51.102;6.848;2022-10-15T14:03:47;1.00;;;0.60;;
20456;SDS011;10387;51.102;6.848;2022-10-15T14:06:24;1.50;;;0.70;;
20456;SDS011;10387;51.102;6.848;2022-10-15T14:08:51;1.70;;;0.80;;
20456;SDS011;10387;51.102;6.848;2022-10-15T14:11:18;0.97;;;0.80;;
20456;SDS011;10387;51.102;6.848;2022-10-15T14:13:45;1.00;;;0.90;;
20456;SDS011;10387;51.102;6.848;2022-10-15T14:16:23;1.57;;;1.00;;
20456;SDS011;10387;51.102;6.848;2022-10-15T14:18:53;1.57;;;1.00;;
20456;SDS011;10387;51.102;6.848;2022-10-15T14:21:21;1.03;;;0.90;;
20456;SDS011;10387;51.102;6.848;2022-10-15T14:24:00;1.10;;;1.00;;
20456;SDS011;10387;51.102;6.848;2022-10-15T14:26:27;1.00;;;1.00;;
20456;SDS011;10387;51.102;6.848;2022-10-15T14:28:53;0.90;;;0.90;;
20456;SDS011;10387;51.102;6.848;2022-10-15T14:36:50;1.87;;;1.40;;
20456;SDS011;10387;51.102;6.848;2022-10-15T14:39:24;2.10;;;1.10;;
20456;SDS011;10387;51.102;6.848;2022-10-15T14:42:03;1.83;;;1.20;;
20456;SDS011;10387;51.102;6.848;2022-10-15T14:44:42;1.13;;;1.03;;
20456;SDS011;10387;51.102;6.848;2022-10-15T14:47:14;1.77;;;1.23;;
20456;SDS011;10387;51.102;6.848;2022-10-15T14:49:41;2.80;;;1.43;;
20456;SDS011;10387;51.102;6.848;2022-10-15T14:52:10;2.77;;;1.10;;
20456;SDS011;10387;51.102;6.848;2022-10-15T14:54:43;1.40;;;1.30;;
20456;SDS011;10387;51.102;6.848;2022-10-15T14:57:14;1.27;;;1.17;;
20456;SDS011;10387;51.102;6.848;2022-10-15T14:59:41;2.07;;;1.63;;
20456;SDS011;10387;51.102;6.848;2022-10-15T15:02:09;1.60;;;1.30;;
20456;SDS011;10387;51.102;6.848;2022-10-15T15:04:40;1.20;;;1.10;;
20456;SDS011;10387;51.102;6.848;2022-10-15T15:07:14;1.50;;;1.40;;
20456;SDS011;10387;51.102;6.848;2022-10-15T15:09:41;1.77;;;1.10;;
20456;SDS011;10387;51.102;6.848;2022-10-15T15:12:09;1.33;;;1.23;;
20456;SDS011;10387;51.102;6.848;2022-10-15T15:14:37;1.57;;;0.90;;
20456;SDS011;10387;51.102;6.848;2022-10-15T15:17:04;2.03;;;1.37;;
20456;SDS011;10387;51.102;6.848;2022-10-15T15:19:30;2.80;;;1.53;;
20456;SDS011;10387;51.102;6.848;2022-10-15T15:21:56;1.63;;;0.90;;
20456;SDS011;10387;51.102;6.848;2022-10-15T15:24:22;1.43;;;1.17;;
20456;SDS011;10387;51.102;6.848;2022-10-15T15:26:48;2.50;;;1.40;;
20456;SDS011;10387;51.102;6.848;2022-10-15T15:29:14;3.33;;;2.60;;
20456;SDS011;10387;51.102;6.848;2022-10-15T15:31:40;4.30;;;2.50;;
20456;SDS011;10387;51.102;6.848;2022-10-15T15:34:06;3.00;;;2.17;;
20456;SDS011;10387;51.102;6.848;2022-10-15T15:36:32;2.07;;;1.50;;
20456;SDS011;10387;51.102;6.848;2022-10-15T15:38:58;1.83;;;1.50;;
20456;SDS011;10387;51.102;6.848;2022-10-15T15:41:24;2.60;;;1.47;;
20456;SDS011;10387;51.102;6.848;2022-10-15T15:43:51;1.63;;;1.40;;
20456;SDS011;10387;51.102;6.848;2022-10-15T15:46:19;2.80;;;2.03;;
20456;SDS011;10387;51.102;6.848;2022-10-15T15:48:45;2.97;;;2.00;;
20456;SDS011;10387;51.102;6.848;2022-10-15T15:51:21;4.07;;;2.77;;
20456;SDS011;10387;51.102;6.848;2022-10-15T15:53:48;2.43;;;2.10;;
20456;SDS011;10387;51.102;6.848;2022-10-15T15:56:16;3.17;;;2.30;;
20456;SDS011;10387;51.102;6.848;2022-10-15T15:58:42;2.80;;;2.60;;
20456;SDS011;10387;51.102;6.848;2022-10-15T16:01:08;2.60;;;1.90;;
20456;SDS011;10387;51.102;6.848;2022-10-15T16:03:34;2.63;;;1.80;;
20456;SDS011;10387;51.102;6.848;2022-10-15T16:06:01;3.23;;;2.80;;
20456;SDS011;10387;51.102;6.848;2022-10-15T16:08:29;3.73;;;2.37;;
20456;SDS011;10387;51.102;6.848;2022-10-15T16:10:56;2.70;;;2.40;;
20456;SDS011;10387;51.102;6.848;2022-10-15T16:13:25;3.50;;;2.33;;
20456;SDS011;10387;51.102;6.848;2022-10-15T16:15:51;3.23;;;2.87;;
20456;SDS011;10387;51.102;6.848;2022-10-15T16:18:17;3.60;;;2.93;;
20456;SDS011;10387;51.102;6.848;2022-10-15T16:20:44;4.23;;;2.57;;
20456;SDS011;10387;51.102;6.848;2022-10-15T16:23:10;2.97;;;2.00;;